Time;durP1;ratioP1;P1;durP2;ratioP2;P2;SDS_P1;SDS_P2;PMS_P1;PMS_P2;Temp;Humidity;BMP_temperature;BMP_pressure;BME280_temperature;BME280_humidity;BME280_pressure;Samples;Min_cycle;Max_cycle;Signal;HPM_P1;HPM_P2
2023/02/04 00:00:37;;;;;;;;;;;;;;;18.31;35.14;96496.41;10432391;28;1996;-48
2023/02/04 00:05:37;;;;;;;;;;;;;;;18.29;34.86;96506.34;10426676;28;2691;-49
2023/02/04 00:10:38;;;;;;;;;;;;;;;18.27;34.96;96512.88;10414724;28;2556;-50
2023/02/04 00:15:38;;;;;;;;;;;;;;;18.23;34.86;96507.31;10425996;28;2591;-47
2023/02/04 00:20:38;;;;;;;;;;;;;;;18.22;34.79;96494.41;10418504;28;1895;-50
2023/02/04 00:25:39;;;;;;;;;;;;;;;18.19;34.81;96524.56;10412500;28;2550;-51
2023/02/04 00:30:39;;;;;;;;;;;;;;;18.18;34.84;96525.59;10430228;28;2617;-48
2023/02/04 00:35:39;;;;;;;;;;;;;;;18.15;34.83;96530.53;10431501;28;2603;-50
2023/02/04 00:40:39;;;;;;;;;;;;;;;18.13;34.85;96543.91;10433666;28;2582;-48
2023/02/04 00:45:40;;;;;;;;;;;;;;;18.12;34.89;96544.13;10423228;28;2687;-51
2023/02/04 00:50:40;;;;;;;;;;;;;;;18.09;35.01;96541.97;10432394;28;2619;-52
2023/02/04 00:55:40;;;;;;;;;;;;;;;18.08;35.01;96550.88;10430894;28;2057;-49
2023/02/04 01:00:40;;;;;;;;;;;;;;;18.05;34.89;96557.41;10433150;28;1966;-51
2023/02/04 01:05:41;;;;;;;;;;;;;;;18.04;34.92;96565.50;10424162;28;2545;-53
2023/02/04 01:10:41;;;;;;;;;;;;;;;18.03;35.00;96566.53;10432906;28;2627;-50
2023/02/04 01:15:41;;;;;;;;;;;;;;;18.00;34.89;96564.38;10438941;28;2545;-48
2023/02/04 01:20:41;;;;;;;;;;;;;;;17.99;34.92;96573.31;10430732;28;2115;-49
2023/02/04 01:25:42;;;;;;;;;;;;;;;17.96;34.57;96568.50;10433366;28;2546;-50
2023/02/04 01:30:42;;;;;;;;;;;;;;;17.95;34.84;96580.81;10412784;28;2578;-51
2023/02/04 01:35:42;;;;;;;;;;;;;;;17.93;34.91;96575.03;10418555;28;2587;-50
2023/02/04 01:40:43;;;;;;;;;;;;;;;17.92;34.86;96572.66;10427716;28;2558;-50
2023/02/04 01:45:44;;;;;;;;;;;;;;;17.92;34.87;96593.63;10423601;28;2646;-49
2023/02/04 01:50:44;;;;;;;;;;;;;;;17.88;34.84;96604.59;10423366;28;2533;-49
2023/02/04 01:55:44;;;;;;;;;;;;;;;17.85;35.05;96599.81;10414766;28;2073;-50
2023/02/04 02:00:44;;;;;;;;;;;;;;;17.85;35.01;96604.25;10411300;28;2582;-50
2023/02/04 02:05:45;;;;;;;;;;;;;;;17.83;34.91;96616.81;10415013;28;1943;-51
2023/02/04 02:10:46;;;;;;;;;;;;;;;17.81;35.03;96603.13;10418992;28;2610;-51
2023/02/04 02:15:46;;;;;;;;;;;;;;;17.79;35.07;96618.31;10413176;28;2504;-48
2023/02/04 02:20:47;;;;;;;;;;;;;;;17.78;35.01;96625.38;10417336;28;2613;-50
2023/02/04 02:25:47;;;;;;;;;;;;;;;17.76;35.00;96635.31;10417350;28;2680;-50
2023/02/04 02:30:48;;;;;;;;;;;;;;;17.76;35.00;96643.16;10413435;28;2675;-51
2023/02/04 02:35:48;;;;;;;;;;;;;;;17.75;35.02;96651.28;10416066;28;2083;-48
2023/02/04 02:40:49;;;;;;;;;;;;;;;17.72;35.05;96642.06;10414506;28;2058;-49
2023/02/04 02:45:50;;;;;;;;;;;;;;;17.71;35.21;96650.97;10422717;28;2644;-53
2023/02/04 02:50:50;;;;;;;;;;;;;;;17.70;35.11;96633.63;10411882;28;2595;-48
2023/02/04 02:55:50;;;;;;;;;;;;;;;17.68;35.07;96650.63;10422743;28;2657;-48
2023/02/04 03:00:50;;;;;;;;;;;;;;;17.67;35.14;96647.22;10430670;28;2596;-51
2023/02/04 03:05:52;;;;;;;;;;;;;;;17.66;35.15;96653.47;10430279;28;2536;-52
2023/02/04 03:10:52;;;;;;;;;;;;;;;17.63;35.19;96655.78;10414198;28;2061;-52
2023/02/04 03:15:52;;;;;;;;;;;;;;;17.64;35.04;96663.41;10412695;28;2001;-49
2023/02/04 03:20:52;;;;;;;;;;;;;;;17.63;35.11;96669.69;10419694;28;1954;-51
2023/02/04 03:25:53;;;;;;;;;;;;;;;17.63;35.12;96668.88;10415534;28;2545;-50
2023/02/04 03:30:54;;;;;;;;;;;;;;;17.61;35.05;96684.03;10400721;28;2570;-52
2023/02/04 03:35:54;;;;;;;;;;;;;;;17.60;35.17;96691.09;10409319;28;2137;-52
2023/02/04 03:40:55;;;;;;;;;;;;;;;17.60;35.08;96700.78;10409514;28;2589;-52
2023/02/04 03:45:55;;;;;;;;;;;;;;;17.58;35.20;96706.28;10410804;28;2632;-50
2023/02/04 03:50:55;;;;;;;;;;;;;;;17.58;35.15;96721.19;10429530;28;2528;-50
2023/02/04 03:55:55;;;;;;;;;;;;;;;17.56;35.17;96737.16;10415233;28;2604;-51
2023/02/04 04:00:56;;;;;;;;;;;;;;;17.58;35.15;96745.59;10420257;28;2579;-52
2023/02/04 04:05:56;;;;;;;;;;;;;;;17.57;35.20;96756.31;10399649;28;1977;-51
2023/02/04 04:10:56;;;;;;;;;;;;;;;17.55;35.30;96756.56;10417446;28;2752;-51
2023/02/04 04:15:56;;;;;;;;;;;;;;;17.57;35.15;96765.00;10420189;28;2644;-52
2023/02/04 04:20:57;;;;;;;;;;;;;;;17.60;35.20;96767.13;10424706;28;2685;-51
2023/02/04 04:25:57;;;;;;;;;;;;;;;17.60;35.19;96772.38;10470636;28;2012;-51
2023/02/04 04:30:58;;;;;;;;;;;;;;;17.62;35.24;96772.94;10473762;28;2601;-51
2023/02/04 04:35:58;;;;;;;;;;;;;;;17.65;35.01;96772.50;10460852;28;2699;-52
2023/02/04 04:40:58;;;;;;;;;;;;;;;17.64;35.04;96770.91;10451070;28;2569;-50
2023/02/04 04:45:58;;;;;;;;;;;;;;;17.68;35.13;96779.13;10456275;28;2031;-52
2023/02/04 04:50:59;;;;;;;;;;;;;;;17.70;34.93;96780.47;10462880;28;2549;-52
2023/02/04 04:55:59;;;;;;;;;;;;;;;17.73;34.91;96795.75;10456787;28;2678;-48
2023/02/04 05:00:59;;;;;;;;;;;;;;;17.73;34.96;96808.84;10460505;28;2564;-48
2023/02/04 05:05:59;;;;;;;;;;;;;;;17.75;34.92;96814.66;10460894;28;2629;-48
2023/02/04 05:11:00;;;;;;;;;;;;;;;17.81;35.00;96810.31;10458071;28;2604;-48
2023/02/04 05:16:01;;;;;;;;;;;;;;;17.89;34.98;96816.03;10458283;28;2644;-51
2023/02/04 05:21:01;;;;;;;;;;;;;;;17.99;34.69;96825.13;10450810;28;2627;-49
2023/02/04 05:26:01;;;;;;;;;;;;;;;18.08;34.57;96836.84;10418522;28;1962;-49
2023/02/04 05:31:01;;;;;;;;;;;;;;;18.16;34.43;96837.28;10415862;28;2641;-49
2023/02/04 05:36:02;;;;;;;;;;;;;;;18.25;34.32;96837.75;10416128;28;2602;-50
2023/02/04 05:41:02;;;;;;;;;;;;;;;18.30;34.32;96846.50;10417239;28;2549;-51
2023/02/04 05:46:02;;;;;;;;;;;;;;;18.36;34.21;96850.81;10420628;28;2388;-49
2023/02/04 05:51:02;;;;;;;;;;;;;;;18.41;34.02;96861.44;10421627;28;2146;-52
2023/02/04 05:56:03;;;;;;;;;;;;;;;18.46;34.03;96876.53;10411701;28;2588;-50
2023/02/04 06:01:03;;;;;;;;;;;;;;;18.51;33.61;96897.59;10419234;28;2545;-48
2023/02/04 06:06:03;;;;;;;;;;;;;;;18.55;33.87;96898.75;10416568;28;2601;-50
2023/02/04 06:11:04;;;;;;;;;;;;;;;18.60;33.66;96909.34;10422045;28;2496;-49
2023/02/04 06:16:04;;;;;;;;;;;;;;;18.64;33.66;96916.53;10412659;28;2718;-47
2023/02/04 06:21:04;;;;;;;;;;;;;;;18.67;33.49;96921.31;10416162;28;1999;-52
2023/02/04 06:26:04;;;;;;;;;;;;;;;18.72;33.54;96936.38;10417915;28;2591;-50
2023/02/04 06:31:05;;;;;;;;;;;;;;;18.76;33.33;96941.97;10410427;28;2549;-50
2023/02/04 06:36:05;;;;;;;;;;;;;;;18.78;33.36;96945.94;10414159;28;1977;-48
2023/02/04 06:41:05;;;;;;;;;;;;;;;18.80;33.32;96954.41;10404628;28;2717;-50
2023/02/04 06:46:06;;;;;;;;;;;;;;;18.83;33.45;96958.41;10413027;28;2583;-53
2023/02/04 06:51:06;;;;;;;;;;;;;;;18.88;33.54;96956.66;10424752;28;2011;-49
2023/02/04 06:56:06;;;;;;;;;;;;;;;18.92;33.94;96957.00;10418474;28;2659;-50
2023/02/04 07:01:06;;;;;;;;;;;;;;;18.95;33.91;96952.06;10434220;28;2062;-50
2023/02/04 07:06:07;;;;;;;;;;;;;;;18.98;34.07;96967.34;10420512;28;2648;-50
2023/02/04 07:11:07;;;;;;;;;;;;;;;19.03;34.53;96975.34;10417142;28;2664;-49
2023/02/04 07:16:07;;;;;;;;;;;;;;;19.13;35.21;96982.63;10418861;28;2624;-49
2023/02/04 07:21:07;;;;;;;;;;;;;;;19.17;35.94;96983.75;10423718;28;2628;-49
2023/02/04 07:26:08;;;;;;;;;;;;;;;19.25;35.80;96994.69;10419734;28;2619;-52
2023/02/04 07:31:08;;;;;;;;;;;;;;;19.30;35.72;97005.31;10421515;28;2118;-51
2023/02/04 07:36:08;;;;;;;;;;;;;;;19.30;34.90;97004.50;10422308;28;2533;-49
2023/02/04 07:41:08;;;;;;;;;;;;;;;19.31;35.06;97013.97;10421378;28;1986;-49
2023/02/04 07:46:09;;;;;;;;;;;;;;;19.31;34.84;97030.53;10422680;28;2121;-55
2023/02/04 07:51:09;;;;;;;;;;;;;;;19.32;34.56;97032.16;10434859;28;2626;-52
2023/02/04 07:56:09;;;;;;;;;;;;;;;19.34;34.15;97037.22;10430617;28;2607;-49
2023/02/04 08:01:10;;;;;;;;;;;;;;;19.31;34.23;97040.25;10426631;28;2584;-54
2023/02/04 08:06:10;;;;;;;;;;;;;;;19.32;34.19;97045.31;10430314;28;2139;-51
2023/02/04 08:11:10;;;;;;;;;;;;;;;19.31;34.16;97046.31;10420925;28;2591;-49
2023/02/04 08:16:10;;;;;;;;;;;;;;;19.27;34.43;97050.44;10423641;28;2605;-48
2023/02/04 08:21:11;;;;;;;;;;;;;;;19.25;34.58;97056.97;10420219;28;2795;-54
2023/02/04 08:26:11;;;;;;;;;;;;;;;19.20;34.74;97062.16;10424819;28;2579;-50
2023/02/04 08:31:11;;;;;;;;;;;;;;;19.16;35.05;97069.69;10414624;28;2614;-54
2023/02/04 08:36:11;;;;;;;;;;;;;;;19.11;35.02;97077.47;10401453;28;2660;-54
2023/02/04 08:41:12;;;;;;;;;;;;;;;19.07;35.61;97092.13;10418013;28;2616;-52
2023/02/04 08:46:12;;;;;;;;;;;;;;;19.05;36.02;97090.75;10391249;28;2747;-54
2023/02/04 08:51:12;;;;;;;;;;;;;;;19.03;36.02;97090.16;10416401;28;2555;-53
2023/02/04 08:56:16;;;;;;;;;;;;;;;18.99;36.41;97095.09;10423754;28;2603;-53
2023/02/04 09:01:17;;;;;;;;;;;;;;;18.98;36.50;97096.09;10414641;28;2085;-48
2023/02/04 09:06:17;;;;;;;;;;;;;;;18.96;36.13;97108.69;10422381;28;2632;-52
2023/02/04 09:11:18;;;;;;;;;;;;;;;18.88;35.96;97118.75;10422886;28;2535;-52
2023/02/04 09:16:18;;;;;;;;;;;;;;;18.83;36.31;97122.06;10424739;28;2560;-52
2023/02/04 09:21:18;;;;;;;;;;;;;;;18.81;37.22;97113.63;10393101;28;2737;-65
2023/02/04 09:26:19;;;;;;;;;;;;;;;18.81;37.81;97126.75;10420621;28;2665;-51
2023/02/04 09:31:19;;;;;;;;;;;;;;;18.81;38.09;97129.38;10420364;28;2563;-51
2023/02/04 09:36:19;;;;;;;;;;;;;;;18.79;38.41;97125.38;10430083;28;2581;-53
2023/02/04 09:41:20;;;;;;;;;;;;;;;18.74;38.51;97139.19;10421387;28;2009;-50
2023/02/04 09:46:21;;;;;;;;;;;;;;;18.71;38.75;97155.44;10409999;28;2592;-53
2023/02/04 09:51:22;;;;;;;;;;;;;;;18.69;38.89;97163.50;10427764;28;2578;-50
2023/02/04 09:56:22;;;;;;;;;;;;;;;18.64;38.91;97163.41;10392551;28;2539;-48
2023/02/04 10:01:23;;;;;;;;;;;;;;;18.62;38.94;97162.03;10395754;28;2709;-50
2023/02/04 10:06:23;;;;;;;;;;;;;;;18.59;38.91;97163.28;10409777;28;2763;-49
2023/02/04 10:11:23;;;;;;;;;;;;;;;18.54;38.96;97165.81;10412736;28;2601;-49
2023/02/04 10:16:30;;;;;;;;;;;;;;;18.52;38.82;97167.84;10420205;28;2699;-50
2023/02/04 10:21:31;;;;;;;;;;;;;;;18.48;39.02;97189.53;10401732;28;2596;-51
2023/02/04 10:26:32;;;;;;;;;;;;;;;18.48;38.85;97189.53;10420048;28;2645;-52
2023/02/04 10:31:36;;;;;;;;;;;;;;;18.47;38.90;97187.91;10416245;28;1981;-51
2023/02/04 10:36:36;;;;;;;;;;;;;;;18.49;38.93;97194.56;10420789;28;2658;-51
2023/02/04 10:41:39;;;;;;;;;;;;;;;18.48;38.88;97184.28;10419220;28;2569;-50
2023/02/04 10:46:40;;;;;;;;;;;;;;;18.47;38.90;97186.09;10419556;28;2563;-48
2023/02/04 10:51:40;;;;;;;;;;;;;;;18.46;39.11;97188.97;10425723;28;2706;-51
2023/02/04 10:56:40;;;;;;;;;;;;;;;18.43;39.01;97184.13;10420975;28;2603;-51
2023/02/04 11:01:41;;;;;;;;;;;;;;;18.37;39.07;97185.00;10413550;28;2593;-48
2023/02/04 11:06:41;;;;;;;;;;;;;;;18.34;39.08;97194.13;10413144;28;2652;-49
2023/02/04 11:11:48;;;;;;;;;;;;;;;18.31;38.96;97197.22;10411737;28;2605;-46
2023/02/04 11:16:48;;;;;;;;;;;;;;;18.27;38.77;97205.75;10427275;28;2554;-49
2023/02/04 11:21:48;;;;;;;;;;;;;;;18.24;38.67;97195.69;10433454;28;2616;-54
2023/02/04 11:26:49;;;;;;;;;;;;;;;18.21;38.54;97180.41;10470553;28;2616;-51
2023/02/04 11:31:49;;;;;;;;;;;;;;;18.20;38.49;97173.53;10472451;28;2083;-48
2023/02/04 11:37:08;;;;;;;;;;;;;;;18.16;38.39;97173.19;10444774;28;2553;-51
2023/02/04 11:42:23;;;;;;;;;;;;;;;18.15;38.31;97174.25;10442725;28;2877;-51
2023/02/04 11:47:24;;;;;;;;;;;;;;;18.15;38.31;97181.31;10447593;28;2619;-54
2023/02/04 11:52:24;;;;;;;;;;;;;;;18.13;38.09;97181.53;10453956;28;2707;-52
2023/02/04 11:57:25;;;;;;;;;;;;;;;18.11;38.12;97174.91;10457020;28;1971;-48
2023/02/04 12:02:25;;;;;;;;;;;;;;;18.08;38.08;97180.59;10452077;28;2599;-53
2023/02/04 12:07:26;;;;;;;;;;;;;;;18.11;38.04;97170.47;10464387;28;2566;-51
2023/02/04 12:12:27;;;;;;;;;;;;;;;18.10;37.96;97179.34;10458363;28;2731;-50
2023/02/04 12:17:28;;;;;;;;;;;;;;;18.08;37.84;97193.69;10459483;28;2015;-49
2023/02/04 12:22:28;;;;;;;;;;;;;;;18.07;37.78;97190.31;10446177;28;2675;-49
2023/02/04 12:27:28;;;;;;;;;;;;;;;18.05;37.77;97183.66;10417004;28;2542;-52
2023/02/04 12:32:29;;;;;;;;;;;;;;;18.05;37.71;97186.28;10412535;28;2648;-48
2023/02/04 12:37:29;;;;;;;;;;;;;;;18.01;37.58;97185.91;10414760;28;2175;-49
2023/02/04 12:42:29;;;;;;;;;;;;;;;18.01;37.48;97185.91;10421167;28;2658;-52
2023/02/04 12:47:29;;;;;;;;;;;;;;;17.96;37.47;97182.38;10424219;28;2639;-53
2023/02/04 12:52:30;;;;;;;;;;;;;;;17.97;37.42;97176.13;10415236;28;2607;-51
2023/02/04 12:57:30;;;;;;;;;;;;;;;17.96;37.33;97171.88;10414728;28;2555;-52
2023/02/04 13:02:31;;;;;;;;;;;;;;;17.93;37.37;97167.09;10430170;28;2590;-50
2023/02/04 13:07:32;;;;;;;;;;;;;;;17.91;37.25;97162.03;10425496;28;2675;-52
2023/02/04 13:12:32;;;;;;;;;;;;;;;17.90;37.04;97168.31;10415596;28;2622;-53
2023/02/04 13:17:32;;;;;;;;;;;;;;;17.89;37.00;97170.13;10414814;28;2577;-50
2023/02/04 13:22:33;;;;;;;;;;;;;;;17.85;37.11;97176.84;10414262;28;2580;-52
2023/02/04 13:27:33;;;;;;;;;;;;;;;17.85;36.98;97184.72;10412957;28;2651;-49
2023/02/04 13:32:33;;;;;;;;;;;;;;;17.83;36.98;97192.00;10416098;28;2605;-48
2023/02/04 13:37:33;;;;;;;;;;;;;;;17.82;36.85;97198.28;10411184;28;2470;-48
2023/02/04 13:42:34;;;;;;;;;;;;;;;17.80;36.95;97205.56;10413158;28;2057;-48
2023/02/04 13:47:34;;;;;;;;;;;;;;;17.79;36.93;97214.47;10410890;28;2649;-51
2023/02/04 13:52:34;;;;;;;;;;;;;;;17.78;36.88;97225.97;10417708;28;2733;-51
2023/02/04 13:57:36;;;;;;;;;;;;;;;17.78;36.75;97225.19;10417758;28;2627;-49
2023/02/04 14:02:36;;;;;;;;;;;;;;;17.76;36.71;97243.75;10422055;28;2603;-54
2023/02/04 14:07:36;;;;;;;;;;;;;;;17.75;36.67;97243.97;10413841;28;2596;-48
2023/02/04 14:12:36;;;;;;;;;;;;;;;17.74;36.67;97247.63;10418178;28;1981;-53
2023/02/04 14:17:37;;;;;;;;;;;;;;;17.73;36.66;97256.50;10414465;28;1959;-51
2023/02/04 14:22:37;;;;;;;;;;;;;;;17.70;36.71;97257.72;10432155;28;2636;-52
2023/02/04 14:27:40;;;;;;;;;;;;;;;17.74;36.71;97263.34;10457733;28;2605;-53
2023/02/04 14:32:41;;;;;;;;;;;;;;;17.72;36.61;97262.78;10451868;28;1955;-49
2023/02/04 14:37:41;;;;;;;;;;;;;;;17.71;36.41;97250.66;10463000;28;2134;-50
2023/02/04 14:42:41;;;;;;;;;;;;;;;17.74;36.47;97258.91;10455602;28;2097;-51
2023/02/04 14:47:42;;;;;;;;;;;;;;;17.82;36.43;97261.25;10449410;28;2603;-50
2023/02/04 14:52:42;;;;;;;;;;;;;;;17.87;36.34;97271.06;10451753;28;2555;-50
2023/02/04 14:57:42;;;;;;;;;;;;;;;17.95;36.29;97264.72;10453595;28;2612;-51
2023/02/04 15:02:43;;;;;;;;;;;;;;;18.05;36.10;97275.50;10434334;28;2587;-51
2023/02/04 15:07:43;;;;;;;;;;;;;;;18.15;36.00;97267.91;10441362;28;2638;-49
2023/02/04 15:12:43;;;;;;;;;;;;;;;18.24;35.88;97274.44;10459968;28;2613;-50
2023/02/04 15:17:43;;;;;;;;;;;;;;;18.33;35.73;97279.19;10451140;28;2545;-50
2023/02/04 15:22:44;;;;;;;;;;;;;;;18.41;35.68;97276.25;10434216;28;2677;-51
2023/02/04 15:27:44;;;;;;;;;;;;;;;18.47;35.53;97285.88;10405823;28;2565;-50
2023/02/04 15:32:45;;;;;;;;;;;;;;;18.54;35.38;97301.53;10412557;28;2555;-48
2023/02/04 15:37:45;;;;;;;;;;;;;;;18.58;35.44;97300.06;10416634;28;2603;-48
2023/02/04 15:42:45;;;;;;;;;;;;;;;18.64;35.17;97305.25;10417226;28;1922;-47
2023/02/04 15:47:46;;;;;;;;;;;;;;;18.71;35.33;97306.97;10418351;28;2615;-51
2023/02/04 15:52:46;;;;;;;;;;;;;;;18.74;35.21;97301.25;10423261;28;2645;-50
2023/02/04 15:57:46;;;;;;;;;;;;;;;18.77;35.19;97309.50;10405262;28;2532;-50
2023/02/04 16:02:47;;;;;;;;;;;;;;;18.83;34.96;97316.50;10415963;28;2550;-53
2023/02/04 16:07:47;;;;;;;;;;;;;;;18.85;35.06;97321.50;10417485;28;2502;-53
2023/02/04 16:12:48;;;;;;;;;;;;;;;18.88;34.86;97319.22;10421783;28;2731;-50
2023/02/04 16:17:48;;;;;;;;;;;;;;;18.93;34.74;97322.00;10415975;28;1966;-48
2023/02/04 16:22:48;;;;;;;;;;;;;;;18.95;34.67;97322.56;10419705;28;2547;-50
2023/02/04 16:27:49;;;;;;;;;;;;;;;19.03;35.26;97331.94;10425782;28;2599;-50
2023/02/04 16:32:49;;;;;;;;;;;;;;;19.08;35.77;97334.72;10428224;28;2611;-55
2023/02/04 16:37:49;;;;;;;;;;;;;;;19.20;35.83;97338.97;10432554;28;2669;-53
2023/02/04 16:42:50;;;;;;;;;;;;;;;19.26;36.20;97353.84;10434391;28;2691;-58
2023/02/04 16:47:50;;;;;;;;;;;;;;;19.33;36.16;97359.81;10441818;28;2026;-55
2023/02/04 16:52:50;;;;;;;;;;;;;;;19.38;36.32;97359.94;10437762;28;2646;-51
2023/02/04 16:57:50;;;;;;;;;;;;;;;19.44;36.03;97363.47;10431248;28;2591;-56
2023/02/04 17:02:51;;;;;;;;;;;;;;;19.48;35.91;97362.00;10429771;28;2517;-49
2023/02/04 17:07:51;;;;;;;;;;;;;;;19.52;35.95;97378.09;10436777;28;2573;-50
2023/02/04 17:12:51;;;;;;;;;;;;;;;19.54;35.91;97382.13;10422042;28;2742;-52
2023/02/04 17:17:51;;;;;;;;;;;;;;;19.60;36.15;97375.16;10422456;28;2539;-53
2023/02/04 17:22:52;;;;;;;;;;;;;;;19.66;35.96;97385.56;10424429;28;2611;-51
2023/02/04 17:27:52;;;;;;;;;;;;;;;19.69;35.81;97392.19;10433262;28;1978;-53
2023/02/04 17:32:52;;;;;;;;;;;;;;;19.77;35.12;97391.84;10425918;28;2701;-53
2023/02/04 17:37:53;;;;;;;;;;;;;;;19.84;35.11;97393.38;10427070;28;1931;-52
2023/02/04 17:42:55;;;;;;;;;;;;;;;19.93;35.18;97399.06;10428302;28;2593;-56
2023/02/04 17:47:55;;;;;;;;;;;;;;;20.08;35.25;97399.41;10414642;28;2695;-53
2023/02/04 17:52:56;;;;;;;;;;;;;;;20.15;35.49;97408.00;10432631;28;2634;-53
2023/02/04 17:57:57;;;;;;;;;;;;;;;20.26;35.23;97409.81;10416892;28;2688;-54
2023/02/04 18:02:58;;;;;;;;;;;;;;;20.34;34.93;97412.09;10397712;28;2545;-48
2023/02/04 18:07:58;;;;;;;;;;;;;;;20.45;35.30;97411.28;10415347;28;2019;-51
2023/02/04 18:12:59;;;;;;;;;;;;;;;20.54;35.39;97407.25;10412919;28;2553;-49
2023/02/04 18:18:32;;;;;;;;;;;;;;;20.62;35.23;97406.88;10411848;28;2572;-52
2023/02/04 18:23:32;;;;;;;;;;;;;;;20.52;34.81;97406.69;10383042;28;2600;-52
2023/02/04 18:28:32;;;;;;;;;;;;;;;20.54;34.11;97403.81;10415553;28;2672;-55
2023/02/04 18:33:33;;;;;;;;;;;;;;;20.56;34.24;97399.91;10415212;28;2618;-49
2023/02/04 18:38:35;;;;;;;;;;;;;;;20.57;34.43;97405.97;10422481;28;2906;-56
2023/02/04 18:43:39;;;;;;;;;;;;;;;20.62;34.27;97403.44;10426413;28;2891;-50
2023/02/04 18:48:56;;;;;;;;;;;;;;;20.67;34.32;97409.59;10418787;28;2448;-55
2023/02/04 18:53:57;;;;;;;;;;;;;;;20.60;33.52;97411.59;10416666;28;2772;-55
2023/02/04 18:58:57;;;;;;;;;;;;;;;20.55;33.53;97405.41;10415126;28;2892;-53
2023/02/04 19:03:58;;;;;;;;;;;;;;;20.52;33.43;97416.44;10411829;28;2856;-52
2023/02/04 19:09:07;;;;;;;;;;;;;;;20.48;33.99;97424.00;10410353;28;2417;-51
2023/02/04 19:14:31;;;;;;;;;;;;;;;20.48;33.21;97421.38;10420743;28;2871;-52
2023/02/04 19:19:33;;;;;;;;;;;;;;;20.45;34.00;97415.75;10403402;28;2839;-51
2023/02/04 19:24:34;;;;;;;;;;;;;;;20.42;34.29;97410.94;10409258;28;2948;-53
2023/02/04 19:29:37;;;;;;;;;;;;;;;20.43;34.24;97407.28;10413019;28;2101;-50
2023/02/04 19:34:38;;;;;;;;;;;;;;;20.43;34.07;97408.06;10413778;28;2823;-51
2023/02/04 19:39:39;;;;;;;;;;;;;;;20.43;34.50;97408.06;10427111;28;2904;-52
2023/02/04 19:44:40;;;;;;;;;;;;;;;20.45;34.19;97415.75;10417472;28;2875;-52
2023/02/04 19:49:41;;;;;;;;;;;;;;;20.46;33.95;97412.09;10414081;28;2363;-51
2023/02/04 19:54:42;;;;;;;;;;;;;;;20.46;33.70;97420.81;10417800;28;2436;-52
2023/02/04 19:59:42;;;;;;;;;;;;;;;20.50;33.96;97416.66;10420486;28;3062;-51
2023/02/04 20:04:43;;;;;;;;;;;;;;;20.52;34.21;97419.88;10423445;28;2923;-45
2023/02/04 20:09:43;;;;;;;;;;;;;;;20.59;34.39;97414.44;10423136;28;2458;-52
2023/02/04 20:14:45;;;;;;;;;;;;;;;20.71;35.03;97410.75;10427973;28;2892;-53
2023/02/04 20:19:45;;;;;;;;;;;;;;;20.78;34.39;97424.59;10411723;28;2923;-49
2023/02/04 20:24:49;;;;;;;;;;;;;;;20.85;34.12;97433.19;10424049;28;2970;-48
2023/02/04 20:29:51;;;;;;;;;;;;;;;20.93;34.19;97422.25;10419802;28;2402;-50
2023/02/04 20:34:52;;;;;;;;;;;;;;;20.97;33.33;97420.75;10425702;28;2140;-51
2023/02/04 20:39:53;;;;;;;;;;;;;;;21.06;34.26;97429.88;10426691;28;2913;-46
2023/02/04 20:44:53;;;;;;;;;;;;;;;21.08;34.07;97431.50;10408788;28;2189;-52
2023/02/04 20:49:55;;;;;;;;;;;;;;;21.12;34.40;97432.63;10426650;28;2429;-53
2023/02/04 20:54:55;;;;;;;;;;;;;;;21.11;33.53;97434.47;10439487;28;2959;-53
2023/02/04 20:59:55;;;;;;;;;;;;;;;21.12;33.68;97437.91;10431473;28;3010;-50
2023/02/04 21:04:56;;;;;;;;;;;;;;;21.13;33.84;97455.31;10408204;28;2847;-48
2023/02/04 21:09:56;;;;;;;;;;;;;;;21.13;33.50;97465.84;10423496;28;2468;-52
2023/02/04 21:14:56;;;;;;;;;;;;;;;21.14;33.56;97467.47;10424229;28;2157;-53
2023/02/04 21:19:57;;;;;;;;;;;;;;;21.14;33.68;97454.28;10409176;28;2460;-48
2023/02/04 21:24:57;;;;;;;;;;;;;;;21.14;33.94;97472.75;10425419;28;2432;-52
2023/02/04 21:29:58;;;;;;;;;;;;;;;21.06;31.90;97471.31;10428475;28;2134;-49
2023/02/04 21:34:59;;;;;;;;;;;;;;;21.00;32.12;97467.72;10422073;28;2338;-53
2023/02/04 21:39:59;;;;;;;;;;;;;;;20.93;31.27;97471.53;10430590;28;3035;-52
2023/02/04 21:45:00;;;;;;;;;;;;;;;20.94;32.07;97467.84;10428710;28;2854;-55
2023/02/04 21:50:00;;;;;;;;;;;;;;;20.84;31.78;97463.19;10430287;28;1996;-53
2023/02/04 21:55:00;;;;;;;;;;;;;;;20.76;31.73;97465.38;10424824;28;2898;-53
2023/02/04 22:00:00;;;;;;;;;;;;;;;20.67;32.10;97469.44;10430164;28;2463;-54
2023/02/04 22:05:05;;;;;;;;;;;;;;;20.62;32.17;97472.75;10424286;28;2915;-54
2023/02/04 22:10:07;;;;;;;;;;;;;;;20.58;32.40;97479.53;10428854;28;2398;-54
2023/02/04 22:15:07;;;;;;;;;;;;;;;20.54;32.19;97477.59;10425271;28;2069;-52
2023/02/04 22:20:08;;;;;;;;;;;;;;;20.49;32.53;97483.53;10426289;28;2443;-53
2023/02/04 22:25:08;;;;;;;;;;;;;;;20.46;32.36;97485.84;10421091;28;2893;-53
2023/02/04 22:30:10;;;;;;;;;;;;;;;20.41;32.29;97499.69;10432376;28;2437;-52
2023/02/04 22:35:11;;;;;;;;;;;;;;;20.37;32.35;97495.94;10426360;28;2423;-53
2023/02/04 22:40:11;;;;;;;;;;;;;;;20.34;32.25;97488.47;10430863;28;2939;-52
2023/02/04 22:45:12;;;;;;;;;;;;;;;20.32;32.40;97492.38;10424816;28;2915;-55
2023/02/04 22:50:12;;;;;;;;;;;;;;;20.26;32.42;97494.09;10422112;28;2453;-56
2023/02/04 22:55:12;;;;;;;;;;;;;;;20.24;32.40;97482.97;10416054;28;2393;-54
2023/02/04 23:00:13;;;;;;;;;;;;;;;20.22;32.48;97482.41;10411886;28;2054;-53
2023/02/04 23:05:13;;;;;;;;;;;;;;;20.19;32.56;97485.50;10397408;28;2430;-54
2023/02/04 23:10:13;;;;;;;;;;;;;;;20.15;32.35;97476.44;10421930;28;2915;-53
2023/02/04 23:15:14;;;;;;;;;;;;;;;20.12;32.47;97474.25;10419062;28;2883;-50
2023/02/04 23:20:14;;;;;;;;;;;;;;;20.09;32.32;97469.47;10422719;28;1961;-54
2023/02/04 23:25:14;;;;;;;;;;;;;;;20.06;32.53;97469.91;10412792;28;2445;-51
2023/02/04 23:30:15;;;;;;;;;;;;;;;20.04;32.46;97458.81;10419052;28;2460;-54
2023/02/04 23:35:15;;;;;;;;;;;;;;;20.01;32.42;97462.69;10408799;28;2419;-53
2023/02/04 23:40:15;;;;;;;;;;;;;;;19.97;32.92;97460.75;10419281;28;2859;-54
2023/02/04 23:45:15;;;;;;;;;;;;;;;19.96;32.60;97464.41;10407810;28;2879;-55
2023/02/04 23:50:16;;;;;;;;;;;;;;;19.95;32.42;97475.97;10414925;28;2477;-55
2023/02/04 23:55:16;;;;;;;;;;;;;;;19.92;32.44;97471.97;10411972;28;2394;-54
